Terminal Aerodrome Forecast
Issued by NWS

Home | Current Version | Previous Version | Graphics & Text | Print | Product List | Glossary On
Versions: 1 2 3 4 5 6 7 8 9 10 11 12 13 14
825
FTUS43 KUNR 211132
TAFGCC
TAF
KGCC 211132Z 2112/2212 32006KT P6SM BKN080
     FM211900 32010KT P6SM BKN120
     FM220000 24008KT P6SM SKC=

USA.gov is the U.S. government's official web portal to all federal, state and local government web resources and services.